Time;durP1;ratioP1;P1;durP2;ratioP2;P2;SDS_P1;SDS_P2;PMS_P1;PMS_P2;Temp;Humidity;BMP_temperature;BMP_pressure;BME280_temperature;BME280_humidity;BME280_pressure;Samples;Min_cycle;Max_cycle;Signal;HPM_P1;HPM_P2
2022/04/20 00:01:06;;;;;;;;;;;7.40;99.90;;;;;;5074277;28;19932;-83
2022/04/20 00:30:36;;;;;;;;;;;6.80;99.90;;;;;;5244064;22;19925;-81
2022/04/20 00:33:02;;;;;;;;;;;6.90;99.90;;;;;;5036667;28;19924;-82
2022/04/20 00:35:29;;;;;;;;;;;6.80;99.90;;;;;;5046387;28;19939;-82
2022/04/20 00:37:55;;;;;;;;;;;6.70;99.90;;;;;;5034902;28;19936;-81
2022/04/20 00:40:22;;;;;;;;;;;6.70;99.90;;;;;;5046832;28;19924;-82
2022/04/20 00:42:48;;;;;;;;;;;6.70;99.90;;;;;;5061984;28;19925;-82
2022/04/20 00:45:15;;;;;;;;;;;6.70;99.90;;;;;;5045204;28;20364;-82
2022/04/20 00:47:42;;;;;;;;;;;6.70;99.90;;;;;;5023597;28;19925;-82
2022/04/20 00:50:09;;;;;;;;;;;6.70;99.90;;;;;;5039328;28;19952;-82
2022/04/20 00:52:35;;;;;;;;;;;6.70;99.90;;;;;;5066552;28;19932;-82
2022/04/20 00:55:02;;;;;;;;;;;6.60;99.90;;;;;;5069050;28;20406;-81
2022/04/20 00:57:28;;;;;;;;;;;6.60;99.90;;;;;;5042023;28;19932;-81
2022/04/20 00:59:55;;;;;;;;;;;6.60;99.90;;;;;;5046304;28;19933;-82
2022/04/20 01:02:22;;;;;;;;;;;6.50;99.90;;;;;;5054124;28;19929;-80
2022/04/20 01:04:49;;;;;;;;;;;6.50;99.90;;;;;;5066941;28;19932;-81
2022/04/20 01:07:15;;;;;;;;;;;6.40;99.90;;;;;;5047240;28;19924;-80
2022/04/20 01:09:42;;;;;;;;;;;6.30;99.90;;;;;;5040792;28;20072;-81
2022/04/20 01:12:08;;;;;;;;;;;6.20;99.90;;;;;;5053687;28;19924;-80
2022/04/20 01:14:35;;;;;;;;;;;6.20;99.90;;;;;;5034304;28;19925;-84
2022/04/20 01:17:01;;;;;;;;;;;6.20;99.90;;;;;;5045940;28;19928;-81
2022/04/20 01:19:28;;;;;;;;;;;6.20;99.90;;;;;;5044394;28;19964;-80
2022/04/20 01:21:55;;;;;;;;;;;6.10;99.90;;;;;;5046554;28;19925;-81
2022/04/20 01:24:21;;;;;;;;;;;6.10;99.90;;;;;;5047242;28;19928;-81
2022/04/20 01:26:48;;;;;;;;;;;6.10;99.90;;;;;;5037830;28;19932;-81
2022/04/20 01:29:14;;;;;;;;;;;6.10;99.90;;;;;;5051983;28;19931;-81
2022/04/20 01:31:41;;;;;;;;;;;6.00;99.90;;;;;;5058145;28;19924;-82
2022/04/20 01:34:07;;;;;;;;;;;6.00;99.90;;;;;;5034593;28;19946;-80
2022/04/20 01:36:34;;;;;;;;;;;6.00;99.90;;;;;;5033915;28;19932;-81
2022/04/20 01:39:00;;;;;;;;;;;6.00;99.90;;;;;;5059722;28;19932;-81
2022/04/20 01:41:27;;;;;;;;;;;5.90;99.90;;;;;;5049175;28;19924;-81
2022/04/20 01:43:53;;;;;;;;;;;6.00;99.90;;;;;;5048359;28;20379;-81
2022/04/20 01:46:20;;;;;;;;;;;5.90;99.90;;;;;;5027132;28;19929;-82
2022/04/20 01:48:46;;;;;;;;;;;5.90;99.90;;;;;;5069391;28;19925;-82
2022/04/20 01:53:57;;;;;;;;;;;5.90;99.90;;;;;;5049340;28;20015;-81
2022/04/20 01:56:24;;;;;;;;;;;5.80;99.90;;;;;;5048990;28;19926;-81
2022/04/20 01:58:50;;;;;;;;;;;5.80;99.90;;;;;;5070464;28;20384;-81
2022/04/20 02:04:01;;;;;;;;;;;5.70;99.90;;;;;;5052643;28;19924;-81
2022/04/20 02:06:28;;;;;;;;;;;5.70;99.90;;;;;;5047744;28;19925;-81
2022/04/20 02:08:54;;;;;;;;;;;5.70;99.90;;;;;;5046909;28;19925;-83
2022/04/20 02:11:21;;;;;;;;;;;5.70;99.90;;;;;;5042159;28;19925;-82
2022/04/20 02:13:47;;;;;;;;;;;5.70;99.90;;;;;;5048963;28;19931;-82
2022/04/20 02:16:14;;;;;;;;;;;5.70;99.90;;;;;;5045453;28;19924;-82
2022/04/20 02:18:40;;;;;;;;;;;5.70;99.90;;;;;;5041241;28;19925;-85
2022/04/20 02:21:07;;;;;;;;;;;5.70;99.90;;;;;;5035581;28;19925;-80
2022/04/20 02:23:33;;;;;;;;;;;5.60;99.90;;;;;;5047295;28;19931;-82
2022/04/20 02:26:00;;;;;;;;;;;5.60;99.90;;;;;;5033443;28;20064;-83
2022/04/20 02:28:26;;;;;;;;;;;5.60;99.90;;;;;;5038368;28;19924;-82
2022/04/20 02:30:53;;;;;;;;;;;5.60;99.90;;;;;;5041339;28;20323;-82
2022/04/20 02:33:20;;;;;;;;;;;5.50;99.90;;;;;;5023583;28;20303;-82
2022/04/20 02:35:46;;;;;;;;;;;5.60;99.90;;;;;;5035177;28;20257;-82
2022/04/20 02:38:13;;;;;;;;;;;5.50;99.90;;;;;;5048120;28;20364;-81
2022/04/20 02:40:39;;;;;;;;;;;5.50;99.90;;;;;;5014933;28;19931;-81
2022/04/20 02:43:06;;;;;;;;;;;5.50;99.90;;;;;;5020701;28;19925;-82
2022/04/20 02:45:32;;;;;;;;;;;5.40;99.90;;;;;;5052559;28;19982;-82
2022/04/20 02:47:59;;;;;;;;;;;5.50;99.90;;;;;;5026755;28;20284;-84
2022/04/20 02:50:25;;;;;;;;;;;5.40;99.90;;;;;;5038814;28;20283;-82
2022/04/20 02:52:52;;;;;;;;;;;5.40;99.90;;;;;;5039953;28;19932;-82
2022/04/20 02:55:18;;;;;;;;;;;5.40;99.90;;;;;;5047569;28;19933;-82
2022/04/20 02:57:45;;;;;;;;;;;5.40;99.90;;;;;;5032422;28;20503;-83
2022/04/20 03:00:11;;;;;;;;;;;5.30;99.90;;;;;;5044933;28;19924;-82
2022/04/20 03:02:38;;;;;;;;;;;5.30;99.90;;;;;;5073090;28;20387;-82
2022/04/20 03:05:05;;;;;;;;;;;5.30;99.90;;;;;;5032864;28;19932;-82
2022/04/20 03:07:31;;;;;;;;;;;5.20;99.90;;;;;;5055306;28;19929;-82
2022/04/20 03:09:58;;;;;;;;;;;5.20;99.90;;;;;;5035516;28;19925;-82
2022/04/20 03:12:24;;;;;;;;;;;5.20;99.90;;;;;;5047363;28;19925;-82
2022/04/20 03:14:54;;;;;;;;;;;5.20;99.90;;;;;;5031259;28;19958;-82
2022/04/20 03:17:21;;;;;;;;;;;5.20;99.90;;;;;;5054215;28;19928;-82
2022/04/20 03:19:47;;;;;;;;;;;5.20;99.90;;;;;;5036767;28;19924;-83
2022/04/20 03:22:14;;;;;;;;;;;5.20;99.90;;;;;;5034081;28;19925;-82
2022/04/20 03:24:41;;;;;;;;;;;5.20;99.90;;;;;;5029855;28;19929;-82
2022/04/20 03:27:07;;;;;;;;;;;5.30;99.90;;;;;;5055515;28;19924;-82
2022/04/20 03:29:34;;;;;;;;;;;5.30;99.90;;;;;;5048023;28;19985;-81
2022/04/20 03:32:01;;;;;;;;;;;5.30;99.90;;;;;;5027475;28;20351;-82
2022/04/20 03:34:27;;;;;;;;;;;5.30;99.90;;;;;;5048268;28;19925;-81
2022/04/20 03:36:54;;;;;;;;;;;5.40;99.90;;;;;;5046206;28;20333;-82
2022/04/20 03:39:20;;;;;;;;;;;5.40;99.90;;;;;;5038664;28;19929;-82
2022/04/20 03:41:47;;;;;;;;;;;5.40;99.90;;;;;;5053327;28;19931;-83
2022/04/20 03:44:13;;;;;;;;;;;5.40;99.90;;;;;;5034660;28;19932;-82
2022/04/20 03:46:40;;;;;;;;;;;5.40;99.90;;;;;;5042437;28;19928;-82
2022/04/20 03:49:07;;;;;;;;;;;5.40;99.90;;;;;;5045613;28;19968;-82
2022/04/20 03:51:33;;;;;;;;;;;5.40;99.90;;;;;;5037165;28;19924;-82
2022/04/20 03:54:00;;;;;;;;;;;5.40;99.90;;;;;;5062765;28;19968;-82
2022/04/20 03:57:03;;;;;;;;;;;5.40;99.90;;;;;;5049329;28;19932;-82
2022/04/20 03:59:13;;;;;;;;;;;5.30;99.90;;;;;;5052563;28;20257;-82
2022/04/20 04:01:40;;;;;;;;;;;5.40;99.90;;;;;;5048470;28;19931;-82
2022/04/20 04:04:06;;;;;;;;;;;5.40;99.90;;;;;;5046681;28;19920;-83
2022/04/20 04:06:33;;;;;;;;;;;5.30;99.90;;;;;;5067441;28;19928;-82
2022/04/20 04:09:00;;;;;;;;;;;5.40;99.90;;;;;;5051850;28;19983;-82
2022/04/20 04:11:27;;;;;;;;;;;5.40;99.90;;;;;;5045069;28;19928;-82
2022/04/20 04:13:53;;;;;;;;;;;5.40;99.90;;;;;;5053189;28;20299;-82
2022/04/20 04:16:20;;;;;;;;;;;5.30;99.90;;;;;;5041646;28;20376;-82
2022/04/20 04:18:46;;;;;;;;;;;5.40;99.90;;;;;;5051670;28;19924;-85
2022/04/20 04:21:13;;;;;;;;;;;5.40;99.90;;;;;;5036553;28;19925;-84
2022/04/20 04:23:39;;;;;;;;;;;5.40;99.90;;;;;;5049132;28;19924;-83
2022/04/20 04:26:06;;;;;;;;;;;5.40;99.90;;;;;;5027351;28;19925;-83
2022/04/20 04:28:32;;;;;;;;;;;5.40;99.90;;;;;;5061297;28;19928;-81
2022/04/20 04:30:59;;;;;;;;;;;5.40;99.90;;;;;;5055091;28;19925;-82
2022/04/20 04:33:25;;;;;;;;;;;5.40;99.90;;;;;;5032835;28;19931;-82
2022/04/20 04:35:52;;;;;;;;;;;5.40;99.90;;;;;;5060613;28;19928;-83
2022/04/20 04:38:18;;;;;;;;;;;5.40;99.90;;;;;;5039460;28;19939;-81
2022/04/20 04:40:45;;;;;;;;;;;5.40;99.90;;;;;;5038881;28;19935;-83
2022/04/20 04:43:12;;;;;;;;;;;5.40;99.90;;;;;;5062975;28;20379;-82
2022/04/20 04:48:39;;;;;;;;;;;5.60;99.90;;;;;;5016942;28;19925;-82
2022/04/20 04:51:05;;;;;;;;;;;5.70;99.90;;;;;;5033879;28;19975;-82
2022/04/20 04:53:32;;;;;;;;;;;5.80;99.90;;;;;;5061974;28;19933;-82
2022/04/20 04:55:58;;;;;;;;;;;5.90;99.90;;;;;;5056569;28;19932;-80
2022/04/20 04:58:25;;;;;;;;;;;6.00;99.90;;;;;;5044654;28;19925;-82
2022/04/20 05:00:51;;;;;;;;;;;6.00;99.90;;;;;;5033584;28;19929;-86
2022/04/20 05:03:19;;;;;;;;;;;6.10;99.90;;;;;;5073656;28;19925;-82
2022/04/20 05:05:45;;;;;;;;;;;6.20;99.90;;;;;;5049590;28;20392;-80
2022/04/20 05:08:12;;;;;;;;;;;6.30;99.90;;;;;;5066432;28;19932;-81
2022/04/20 05:10:38;;;;;;;;;;;6.40;99.90;;;;;;5047597;28;20517;-82
2022/04/20 05:13:05;;;;;;;;;;;6.50;99.90;;;;;;5051798;28;20008;-81
2022/04/20 05:15:32;;;;;;;;;;;6.60;99.90;;;;;;5042390;28;19932;-81
2022/04/20 05:17:58;;;;;;;;;;;6.60;99.90;;;;;;5041475;28;19924;-80
2022/04/20 05:20:25;;;;;;;;;;;6.70;99.90;;;;;;5066825;28;20365;-80
2022/04/20 05:22:51;;;;;;;;;;;6.80;99.90;;;;;;5057199;28;19928;-83
2022/04/20 05:25:18;;;;;;;;;;;7.10;99.90;;;;;;5036310;28;19932;-81
2022/04/20 05:27:44;;;;;;;;;;;7.10;99.90;;;;;;5048144;28;19929;-81
2022/04/20 05:30:13;;;;;;;;;;;7.30;99.90;;;;;;5041753;28;19952;-81
2022/04/20 05:32:39;;;;;;;;;;;7.30;99.90;;;;;;5027945;28;19974;-81
2022/04/20 05:35:06;;;;;;;;;;;7.40;99.90;;;;;;5026952;28;19948;-81
2022/04/20 05:43:01;;;;;;;;;;;7.80;99.90;;;;;;5050194;28;20130;-79
2022/04/20 05:45:28;;;;;;;;;;;7.80;99.90;;;;;;5049089;28;19925;-79
2022/04/20 05:47:54;;;;;;;;;;;8.00;99.90;;;;;;5025626;28;20287;-84
2022/04/20 05:50:22;;;;;;;;;;;8.00;99.90;;;;;;5024431;28;20293;-81
2022/04/20 05:52:49;;;;;;;;;;;8.00;99.90;;;;;;5030783;28;20368;-80
2022/04/20 05:55:15;;;;;;;;;;;8.10;99.90;;;;;;5024254;28;19936;-81
2022/04/20 05:57:42;;;;;;;;;;;7.90;99.90;;;;;;5030891;28;19929;-81
2022/04/20 06:00:08;;;;;;;;;;;8.10;99.90;;;;;;5040463;28;20285;-81
2022/04/20 06:02:35;;;;;;;;;;;8.30;99.90;;;;;;5033627;28;19932;-82
2022/04/20 06:05:01;;;;;;;;;;;8.30;99.90;;;;;;5025036;28;19936;-81
2022/04/20 06:07:29;;;;;;;;;;;8.40;99.90;;;;;;5046011;28;19932;-82
2022/04/20 06:09:56;;;;;;;;;;;8.30;99.90;;;;;;5042992;28;19932;-84
2022/04/20 06:12:22;;;;;;;;;;;8.30;99.90;;;;;;5026917;28;19929;-81
2022/04/20 06:14:49;;;;;;;;;;;8.50;99.90;;;;;;5031526;28;19931;-81
2022/04/20 06:17:16;;;;;;;;;;;8.60;99.90;;;;;;5025600;28;20531;-82
2022/04/20 06:19:43;;;;;;;;;;;8.60;99.90;;;;;;5049075;28;20435;-80
2022/04/20 06:22:09;;;;;;;;;;;8.80;99.90;;;;;;5027805;28;19932;-81
2022/04/20 06:24:36;;;;;;;;;;;9.00;99.90;;;;;;5045883;28;19925;-81
2022/04/20 06:27:02;;;;;;;;;;;9.00;99.90;;;;;;5027917;28;19925;-81
2022/04/20 06:29:29;;;;;;;;;;;9.10;99.90;;;;;;5032951;28;19970;-82
2022/04/20 06:31:56;;;;;;;;;;;9.10;99.90;;;;;;5024446;28;19925;-85
2022/04/20 06:34:22;;;;;;;;;;;9.20;99.90;;;;;;5049034;28;19924;-82
2022/04/20 06:36:49;;;;;;;;;;;9.40;99.90;;;;;;5031277;28;19948;-83
2022/04/20 06:39:16;;;;;;;;;;;9.50;99.90;;;;;;5025751;28;20538;-80
2022/04/20 06:41:42;;;;;;;;;;;9.80;99.90;;;;;;5042398;28;19933;-81
2022/04/20 06:44:09;;;;;;;;;;;9.90;99.90;;;;;;5031143;28;19933;-82
2022/04/20 06:46:35;;;;;;;;;;;10.00;99.90;;;;;;5022990;28;19933;-82
2022/04/20 06:49:03;;;;;;;;;;;10.20;99.90;;;;;;5019588;28;19932;-82
2022/04/20 06:58:31;;;;;;;;;;;10.40;99.90;;;;;;5028779;28;19924;-81
2022/04/20 06:59:44;;;;;;;;;;;10.50;99.90;;;;;;5021648;28;19959;-82
2022/04/20 07:02:11;;;;;;;;;;;10.60;99.90;;;;;;5034370;28;20376;-81
2022/04/20 07:04:37;;;;;;;;;;;10.80;99.90;;;;;;5029486;28;19925;-81
2022/04/20 07:07:04;;;;;;;;;;;11.00;99.90;;;;;;5046184;28;20356;-81
2022/04/20 07:09:31;;;;;;;;;;;10.90;99.90;;;;;;5045883;28;20302;-81
2022/04/20 07:11:57;;;;;;;;;;;11.10;99.90;;;;;;5027816;28;20042;-86
2022/04/20 07:14:25;;;;;;;;;;;11.20;99.90;;;;;;5044964;28;19931;-81
2022/04/20 07:16:51;;;;;;;;;;;11.40;99.90;;;;;;5028048;28;20016;-82
2022/04/20 07:19:18;;;;;;;;;;;11.50;99.90;;;;;;5025045;28;19925;-82
2022/04/20 07:21:44;;;;;;;;;;;11.70;99.20;;;;;;5048347;28;20407;-82
2022/04/20 07:24:11;;;;;;;;;;;11.80;99.50;;;;;;5047603;28;19940;-81
2022/04/20 07:26:37;;;;;;;;;;;11.90;99.80;;;;;;5048713;28;19926;-82
2022/04/20 07:29:04;;;;;;;;;;;12.10;98.60;;;;;;5023566;28;19931;-85
2022/04/20 07:31:31;;;;;;;;;;;12.40;98.10;;;;;;5025912;28;19932;-82
2022/04/20 07:33:58;;;;;;;;;;;12.40;96.70;;;;;;5029642;28;20015;-83
2022/04/20 07:36:24;;;;;;;;;;;12.30;96.70;;;;;;5022724;28;19933;-82
2022/04/20 07:38:51;;;;;;;;;;;12.50;95.80;;;;;;5040756;28;19939;-82
2022/04/20 07:41:17;;;;;;;;;;;12.50;95.50;;;;;;5042755;28;19924;-80
2022/04/20 07:43:44;;;;;;;;;;;12.40;94.30;;;;;;5045654;28;20404;-81
2022/04/20 07:46:12;;;;;;;;;;;12.60;94.50;;;;;;5030381;28;19947;-82
2022/04/20 07:48:39;;;;;;;;;;;12.60;95.20;;;;;;5033906;28;19940;-82
2022/04/20 07:51:05;;;;;;;;;;;12.80;93.80;;;;;;5030429;28;20348;-82
2022/04/20 07:53:32;;;;;;;;;;;12.80;93.30;;;;;;5044836;28;19925;-81
2022/04/20 07:55:59;;;;;;;;;;;12.80;91.60;;;;;;5044065;28;20019;-83
2022/04/20 07:58:25;;;;;;;;;;;12.90;91.30;;;;;;5036731;28;20339;-82
2022/04/20 08:00:53;;;;;;;;;;;13.00;91.90;;;;;;5044830;28;20288;-81
2022/04/20 08:03:20;;;;;;;;;;;13.30;90.60;;;;;;5042105;28;19980;-83
2022/04/20 08:05:46;;;;;;;;;;;13.30;90.80;;;;;;5066964;28;19956;-83
2022/04/20 08:08:13;;;;;;;;;;;13.40;82.80;;;;;;5036409;28;19928;-82
2022/04/20 08:10:39;;;;;;;;;;;13.50;84.30;;;;;;5039083;28;19925;-83
2022/04/20 08:15:46;;;;;;;;;;;13.50;83.50;;;;;;5026005;28;19925;-82
2022/04/20 08:18:13;;;;;;;;;;;13.50;79.80;;;;;;5052141;28;19936;-83
2022/04/20 08:20:40;;;;;;;;;;;13.60;77.90;;;;;;5047337;28;19925;-81
2022/04/20 08:23:06;;;;;;;;;;;13.80;76.30;;;;;;5037087;28;19932;-84
2022/04/20 08:25:33;;;;;;;;;;;13.90;74.10;;;;;;5052647;28;19928;-82
2022/04/20 08:27:59;;;;;;;;;;;14.10;70.70;;;;;;5050542;28;19925;-83
2022/04/20 08:30:27;;;;;;;;;;;14.00;67.40;;;;;;5038755;28;20040;-84
2022/04/20 08:32:54;;;;;;;;;;;14.20;72.20;;;;;;5052066;28;20973;-83
2022/04/20 08:35:21;;;;;;;;;;;14.40;73.80;;;;;;5046416;28;19925;-83
2022/04/20 08:37:47;;;;;;;;;;;14.30;69.60;;;;;;5053591;28;19925;-82
2022/04/20 08:40:14;;;;;;;;;;;14.20;67.10;;;;;;5066758;28;20299;-83
2022/04/20 08:42:40;;;;;;;;;;;14.30;68.30;;;;;;5030925;28;20284;-83
2022/04/20 08:45:07;;;;;;;;;;;14.30;70.00;;;;;;5074141;28;20288;-87
2022/04/20 08:47:34;;;;;;;;;;;14.30;66.80;;;;;;5060934;28;19932;-83
2022/04/20 08:50:01;;;;;;;;;;;14.40;67.60;;;;;;5057809;28;19932;-82
2022/04/20 08:52:41;;;;;;;;;;;14.40;66.80;;;;;;5049560;28;19976;-83
2022/04/20 08:55:08;;;;;;;;;;;14.30;64.90;;;;;;5053176;28;19924;-83
2022/04/20 08:57:35;;;;;;;;;;;14.60;69.20;;;;;;5067268;28;19925;-82
2022/04/20 09:00:01;;;;;;;;;;;14.70;66.20;;;;;;5059574;28;19929;-81
2022/04/20 09:02:29;;;;;;;;;;;14.60;65.90;;;;;;5060454;28;19928;-83
2022/04/20 09:04:55;;;;;;;;;;;14.80;67.60;;;;;;5038326;28;20407;-82
2022/04/20 09:07:22;;;;;;;;;;;14.70;65.70;;;;;;5050756;28;20380;-83
2022/04/20 09:09:48;;;;;;;;;;;14.80;64.80;;;;;;5018437;28;19925;-82
2022/04/20 09:12:15;;;;;;;;;;;15.00;64.80;;;;;;5048610;28;19931;-83
2022/04/20 09:14:43;;;;;;;;;;;15.00;63.10;;;;;;5029253;28;20323;-83
2022/04/20 09:17:09;;;;;;;;;;;14.90;61.30;;;;;;5041843;28;19925;-86
2022/04/20 09:19:36;;;;;;;;;;;14.70;60.10;;;;;;5058141;28;19925;-82
2022/04/20 09:22:03;;;;;;;;;;;14.60;60.30;;;;;;5051105;28;19924;-83
2022/04/20 09:24:29;;;;;;;;;;;14.80;61.80;;;;;;5051519;28;19931;-83
2022/04/20 09:26:56;;;;;;;;;;;15.00;62.40;;;;;;5043327;28;20028;-83
2022/04/20 09:29:23;;;;;;;;;;;14.80;57.40;;;;;;5032457;28;19933;-84
2022/04/20 09:31:49;;;;;;;;;;;15.00;59.50;;;;;;5043135;28;19924;-82
2022/04/20 09:34:16;;;;;;;;;;;15.00;56.70;;;;;;5034671;28;19932;-83
2022/04/20 09:36:42;;;;;;;;;;;15.10;57.50;;;;;;5070334;28;19924;-84
2022/04/20 09:39:09;;;;;;;;;;;15.10;56.10;;;;;;5057240;28;19929;-88
2022/04/20 09:41:36;;;;;;;;;;;15.30;55.10;;;;;;5037540;28;20380;-83
2022/04/20 09:44:02;;;;;;;;;;;15.30;56.00;;;;;;5034494;28;19925;-84
2022/04/20 09:49:13;;;;;;;;;;;15.10;55.40;;;;;;5046679;28;20460;-85
2022/04/20 09:51:40;;;;;;;;;;;15.10;55.50;;;;;;5035330;28;19925;-84
2022/04/20 09:54:07;;;;;;;;;;;15.10;53.50;;;;;;5051514;28;19925;-83
2022/04/20 09:56:33;;;;;;;;;;;15.30;53.00;;;;;;5039803;28;20172;-84
2022/04/20 09:59:00;;;;;;;;;;;15.20;54.30;;;;;;5065563;28;19924;-87
2022/04/20 10:01:27;;;;;;;;;;;15.20;53.90;;;;;;5016566;28;19980;-83
2022/04/20 10:03:54;;;;;;;;;;;15.00;52.50;;;;;;5036244;28;19932;-82
2022/04/20 10:06:20;;;;;;;;;;;15.00;53.90;;;;;;5039769;28;19925;-84
2022/04/20 10:08:47;;;;;;;;;;;15.20;53.30;;;;;;5049822;28;19931;-87
2022/04/20 10:11:13;;;;;;;;;;;15.30;54.90;;;;;;5016526;28;19925;-87
2022/04/20 10:13:40;;;;;;;;;;;15.00;49.10;;;;;;5064915;28;19930;-84
2022/04/20 10:16:06;;;;;;;;;;;15.30;51.40;;;;;;5046749;28;19924;-83
2022/04/20 10:18:33;;;;;;;;;;;15.60;51.30;;;;;;5049492;28;19967;-85
2022/04/20 10:21:00;;;;;;;;;;;15.80;52.20;;;;;;5024886;28;19933;-84
2022/04/20 10:23:29;;;;;;;;;;;15.90;53.70;;;;;;5043139;28;19948;-85
2022/04/20 10:25:55;;;;;;;;;;;15.70;49.70;;;;;;5032765;28;19994;-83
2022/04/20 10:28:22;;;;;;;;;;;15.90;51.90;;;;;;5064794;28;19924;-83
2022/04/20 10:30:48;;;;;;;;;;;16.10;51.50;;;;;;5071641;28;19925;-84
2022/04/20 10:33:16;;;;;;;;;;;16.30;51.80;;;;;;5052656;28;19935;-84
2022/04/20 10:35:43;;;;;;;;;;;16.20;49.90;;;;;;5042877;28;19931;-82
2022/04/20 10:38:09;;;;;;;;;;;16.40;50.50;;;;;;5068091;28;19925;-82
2022/04/20 10:40:36;;;;;;;;;;;16.40;49.30;;;;;;5037748;28;19925;-82
2022/04/20 10:43:03;;;;;;;;;;;16.00;51.10;;;;;;5033896;28;20443;-83
2022/04/20 10:45:29;;;;;;;;;;;16.20;51.20;;;;;;5033534;28;19931;-84
2022/04/20 10:47:56;;;;;;;;;;;16.10;49.30;;;;;;5041596;28;19970;-84
2022/04/20 10:50:22;;;;;;;;;;;16.30;50.90;;;;;;5036317;28;19939;-84
2022/04/20 10:52:52;;;;;;;;;;;16.00;50.00;;;;;;5040853;28;19925;-83
2022/04/20 10:55:18;;;;;;;;;;;16.10;50.50;;;;;;5049618;28;19983;-83
2022/04/20 10:57:45;;;;;;;;;;;16.00;50.50;;;;;;5053770;28;20015;-83
2022/04/20 11:00:12;;;;;;;;;;;16.00;49.30;;;;;;5071294;28;19960;-83
2022/04/20 11:02:39;;;;;;;;;;;16.10;49.40;;;;;;5051432;28;19925;-84
2022/04/20 11:05:05;;;;;;;;;;;15.90;51.60;;;;;;5050735;28;19932;-83
2022/04/20 11:07:34;;;;;;;;;;;16.00;50.20;;;;;;5048071;28;19924;-83
2022/04/20 11:10:02;;;;;;;;;;;15.90;49.70;;;;;;5053768;28;19925;-83
2022/04/20 11:20:41;;;;;;;;;;;16.30;52.00;;;;;;5076535;28;19925;-82
2022/04/20 11:23:09;;;;;;;;;;;16.40;52.00;;;;;;5055460;28;19933;-84
2022/04/20 11:25:36;;;;;;;;;;;16.50;51.50;;;;;;5057845;28;20096;-86
2022/04/20 11:28:03;;;;;;;;;;;16.60;51.40;;;;;;5062286;28;19947;-84
2022/04/20 11:30:29;;;;;;;;;;;16.50;50.40;;;;;;5060608;28;19925;-85
2022/04/20 11:32:56;;;;;;;;;;;16.40;49.60;;;;;;5067419;28;19951;-84
2022/04/20 11:35:22;;;;;;;;;;;16.50;51.00;;;;;;5049260;28;19924;-84
2022/04/20 11:37:49;;;;;;;;;;;16.40;50.10;;;;;;5061085;28;19925;-83
2022/04/20 11:40:15;;;;;;;;;;;16.60;52.30;;;;;;5056543;28;19928;-86
2022/04/20 11:42:43;;;;;;;;;;;16.50;51.00;;;;;;5058722;28;19932;-83
2022/04/20 11:45:11;;;;;;;;;;;16.50;52.10;;;;;;5052987;28;19924;-85
2022/04/20 11:47:38;;;;;;;;;;;16.70;52.00;;;;;;5036258;28;19929;-83
2022/04/20 11:50:05;;;;;;;;;;;16.40;50.80;;;;;;5030240;28;19936;-84
2022/04/20 11:52:31;;;;;;;;;;;16.40;51.70;;;;;;5053241;28;19973;-83
2022/04/20 11:54:58;;;;;;;;;;;16.60;51.40;;;;;;5025343;28;19975;-84
2022/04/20 11:57:25;;;;;;;;;;;16.60;52.60;;;;;;5044945;28;19935;-84
2022/04/20 11:59:51;;;;;;;;;;;16.60;51.90;;;;;;5043971;28;19929;-84
2022/04/20 12:02:18;;;;;;;;;;;16.50;52.40;;;;;;5032953;28;20386;-88
2022/04/20 12:04:46;;;;;;;;;;;16.60;53.60;;;;;;5050264;28;19959;-84
2022/04/20 12:07:12;;;;;;;;;;;16.50;51.80;;;;;;5046893;28;20388;-82
2022/04/20 12:09:40;;;;;;;;;;;16.40;51.90;;;;;;5052093;28;19927;-83
2022/04/20 12:12:06;;;;;;;;;;;16.40;54.00;;;;;;5079544;28;20011;-84
2022/04/20 12:14:33;;;;;;;;;;;16.30;53.60;;;;;;5059200;28;19925;-82
2022/04/20 12:17:00;;;;;;;;;;;16.30;54.20;;;;;;5050552;28;19924;-82
2022/04/20 12:19:27;;;;;;;;;;;16.20;54.00;;;;;;5050083;28;19925;-84
2022/04/20 12:21:53;;;;;;;;;;;16.20;54.00;;;;;;5082003;28;19991;-82
2022/04/20 12:24:20;;;;;;;;;;;16.30;54.10;;;;;;5055125;28;19932;-89
2022/04/20 12:26:47;;;;;;;;;;;16.40;56.10;;;;;;5062208;28;19925;-86
2022/04/20 12:29:14;;;;;;;;;;;16.40;56.40;;;;;;5037773;28;19926;-83
2022/04/20 12:31:44;;;;;;;;;;;16.50;55.10;;;;;;5059476;28;19931;-82
2022/04/20 12:34:11;;;;;;;;;;;16.70;54.50;;;;;;5052995;28;19940;-82
2022/04/20 12:36:37;;;;;;;;;;;16.80;53.80;;;;;;5054021;28;19925;-74
2022/04/20 12:39:04;;;;;;;;;;;16.80;55.20;;;;;;5060985;28;19932;-83
2022/04/20 12:41:30;;;;;;;;;;;16.60;56.60;;;;;;5066061;28;19925;-83
2022/04/20 12:43:57;;;;;;;;;;;16.70;55.70;;;;;;5048500;28;19925;-84
2022/04/20 12:46:24;;;;;;;;;;;16.50;56.30;;;;;;5068196;28;19936;-85
2022/04/20 12:48:51;;;;;;;;;;;16.60;57.00;;;;;;5062563;28;20039;-82
2022/04/20 12:51:17;;;;;;;;;;;16.80;56.20;;;;;;5067704;28;20019;-86
2022/04/20 12:53:44;;;;;;;;;;;17.00;56.90;;;;;;5044992;28;19956;-83
2022/04/20 13:04:23;;;;;;;;;;;17.00;56.90;;;;;;5035981;28;19925;-87
2022/04/20 13:06:50;;;;;;;;;;;16.90;56.10;;;;;;5055999;28;19931;-84
2022/04/20 13:09:16;;;;;;;;;;;17.30;56.00;;;;;;5055908;28;20269;-81
2022/04/20 13:11:43;;;;;;;;;;;17.40;54.60;;;;;;5034352;28;19920;-84
2022/04/20 13:14:10;;;;;;;;;;;17.50;55.90;;;;;;5058493;28;20288;-83
2022/04/20 13:16:37;;;;;;;;;;;17.30;57.30;;;;;;5062693;28;19924;-83
2022/04/20 13:19:03;;;;;;;;;;;16.90;56.10;;;;;;5025942;28;19925;-82
2022/04/20 13:21:30;;;;;;;;;;;16.80;57.30;;;;;;5043484;28;19928;-84
2022/04/20 13:23:57;;;;;;;;;;;17.10;58.00;;;;;;5054691;28;19925;-84
2022/04/20 13:29:08;;;;;;;;;;;17.30;58.20;;;;;;5052463;28;19924;-84
2022/04/20 13:31:34;;;;;;;;;;;17.50;56.70;;;;;;5051572;28;19925;-84
2022/04/20 13:34:01;;;;;;;;;;;17.60;56.40;;;;;;5016861;28;19932;-84
2022/04/20 13:36:27;;;;;;;;;;;17.40;53.40;;;;;;5017402;28;19971;-87
2022/04/20 13:38:54;;;;;;;;;;;17.50;55.60;;;;;;5029037;28;20021;-84
2022/04/20 13:41:21;;;;;;;;;;;17.40;56.50;;;;;;5049200;28;20374;-84
2022/04/20 13:43:47;;;;;;;;;;;17.30;57.00;;;;;;5054337;28;20376;-85
2022/04/20 13:46:14;;;;;;;;;;;17.30;56.80;;;;;;5043611;28;20391;-85
2022/04/20 13:48:41;;;;;;;;;;;17.50;57.40;;;;;;5044475;28;20019;-85
2022/04/20 13:51:08;;;;;;;;;;;17.30;56.80;;;;;;5035913;28;20369;-84
2022/04/20 13:53:34;;;;;;;;;;;17.10;58.80;;;;;;5025449;28;20443;-84
2022/04/20 13:56:01;;;;;;;;;;;17.20;57.90;;;;;;5044228;28;19924;-83
2022/04/20 13:58:27;;;;;;;;;;;17.30;56.30;;;;;;5056678;28;19925;-83
2022/04/20 14:00:55;;;;;;;;;;;17.30;56.60;;;;;;5022088;28;19925;-83
2022/04/20 14:03:21;;;;;;;;;;;17.30;57.20;;;;;;5053297;28;19968;-82
2022/04/20 14:05:48;;;;;;;;;;;17.10;58.20;;;;;;5029233;28;19925;-79
2022/04/20 14:08:14;;;;;;;;;;;17.00;56.00;;;;;;5041732;28;19931;-81
2022/04/20 14:10:41;;;;;;;;;;;17.10;57.10;;;;;;5063059;28;19924;-82
2022/04/20 14:13:08;;;;;;;;;;;17.00;57.30;;;;;;5063670;28;19931;-82
2022/04/20 14:15:35;;;;;;;;;;;16.80;60.50;;;;;;5059053;28;19924;-77
2022/04/20 14:18:01;;;;;;;;;;;16.80;59.60;;;;;;5035715;28;19959;-82
2022/04/20 14:20:28;;;;;;;;;;;16.60;60.00;;;;;;5028835;28;19930;-84
2022/04/20 14:22:54;;;;;;;;;;;17.10;57.60;;;;;;5039998;28;19935;-84
2022/04/20 14:33:34;;;;;;;;;;;17.20;61.30;;;;;;5037234;28;19983;-82
2022/04/20 14:36:00;;;;;;;;;;;17.40;59.90;;;;;;5040113;28;20019;-76
2022/04/20 14:38:27;;;;;;;;;;;17.50;60.50;;;;;;5053540;28;19937;-85
2022/04/20 14:40:54;;;;;;;;;;;17.60;60.10;;;;;;5048962;28;19944;-82
2022/04/20 14:43:22;;;;;;;;;;;17.40;60.60;;;;;;5026012;28;19929;-82
2022/04/20 14:45:48;;;;;;;;;;;17.10;60.30;;;;;;5049600;28;20498;-82
2022/04/20 14:48:15;;;;;;;;;;;17.10;62.10;;;;;;5039135;28;19928;-82
2022/04/20 14:50:41;;;;;;;;;;;17.40;61.90;;;;;;5066552;28;19924;-83
2022/04/20 14:53:08;;;;;;;;;;;17.50;62.30;;;;;;5039002;28;19932;-83
2022/04/20 14:55:36;;;;;;;;;;;17.50;62.70;;;;;;5054958;28;19936;-84
2022/04/20 14:58:02;;;;;;;;;;;17.70;59.70;;;;;;5061239;28;19925;-83
2022/04/20 15:00:29;;;;;;;;;;;17.80;62.10;;;;;;5040678;28;19925;-85
2022/04/20 15:02:56;;;;;;;;;;;17.50;63.10;;;;;;5054374;28;20368;-84
2022/04/20 15:05:23;;;;;;;;;;;17.60;61.60;;;;;;5050723;28;19936;-85
2022/04/20 15:07:51;;;;;;;;;;;17.60;62.90;;;;;;5033191;28;19927;-83
2022/04/20 15:10:18;;;;;;;;;;;17.60;64.00;;;;;;5046810;28;20418;-83
2022/04/20 15:12:48;;;;;;;;;;;17.50;60.60;;;;;;5048277;28;20312;-84
2022/04/20 15:15:15;;;;;;;;;;;17.20;62.60;;;;;;5043588;28;19929;-84
2022/04/20 15:17:41;;;;;;;;;;;17.10;62.80;;;;;;5056116;28;19925;-84
2022/04/20 15:20:08;;;;;;;;;;;17.20;64.60;;;;;;5054999;28;20296;-84
2022/04/20 15:22:35;;;;;;;;;;;17.10;66.00;;;;;;5028770;28;19925;-83
2022/04/20 15:25:01;;;;;;;;;;;17.10;64.50;;;;;;5055005;28;19934;-82
2022/04/20 15:27:28;;;;;;;;;;;17.30;65.10;;;;;;5045041;28;19929;-85
2022/04/20 15:29:54;;;;;;;;;;;17.30;63.20;;;;;;5069528;28;19934;-83
2022/04/20 15:32:22;;;;;;;;;;;17.30;64.00;;;;;;5064278;28;20279;-85
2022/04/20 15:34:49;;;;;;;;;;;17.30;63.60;;;;;;5046329;28;19934;-83
2022/04/20 15:37:15;;;;;;;;;;;16.90;63.00;;;;;;5069782;28;19925;-85
2022/04/20 15:39:42;;;;;;;;;;;17.10;62.50;;;;;;5053587;28;19924;-83